createdAt,value
2022-11-10T00:01:09.504Z,5.25
2022-11-10T00:03:38.016Z,4.80
2022-11-10T00:06:06.064Z,4.68
2022-11-10T00:08:32.693Z,4.50
2022-11-10T00:10:59.449Z,4.78
2022-11-10T00:13:32.037Z,5.25
2022-11-10T00:16:19.162Z,4.72
2022-11-10T00:18:45.845Z,5.45
2022-11-10T00:21:14.156Z,4.10
2022-11-10T00:23:40.987Z,4.72
2022-11-10T00:26:16.517Z,4.38
2022-11-10T00:28:43.912Z,4.28
2022-11-10T00:31:11.565Z,4.53
2022-11-10T00:33:39.964Z,4.28
2022-11-10T00:36:07.370Z,4.20
2022-11-10T00:38:34.062Z,4.45
2022-11-10T00:41:01.470Z,4.38
2022-11-10T00:43:29.677Z,3.95
2022-11-10T00:45:56.995Z,4.43
2022-11-10T00:48:23.726Z,4.00
2022-11-10T00:50:50.439Z,4.00
2022-11-10T00:53:17.543Z,4.00
2022-11-10T00:55:44.309Z,5.53
2022-11-10T00:58:11.056Z,7.00
2022-11-10T01:00:38.058Z,3.92
2022-11-10T01:03:04.749Z,6.43
2022-11-10T01:05:31.670Z,6.13
2022-11-10T01:07:59.710Z,4.15
2022-11-10T01:10:26.923Z,4.43
2022-11-10T01:12:54.279Z,4.43
2022-11-10T01:15:27.028Z,4.63
2022-11-10T01:17:55.609Z,4.28
2022-11-10T01:20:22.952Z,4.00
2022-11-10T01:22:49.604Z,4.32
2022-11-10T01:25:16.449Z,4.40
2022-11-10T01:27:43.137Z,3.95
2022-11-10T01:30:10.243Z,3.95
2022-11-10T01:32:36.922Z,4.18
2022-11-10T01:35:03.758Z,3.55
2022-11-10T01:37:30.444Z,3.45
2022-11-10T01:39:57.139Z,4.03
2022-11-10T01:42:38.352Z,3.55
2022-11-10T01:45:23.200Z,3.55
2022-11-10T01:48:03.027Z,3.70
2022-11-10T01:50:34.776Z,3.88
2022-11-10T01:53:04.996Z,3.30
2022-11-10T01:55:32.589Z,3.75
2022-11-10T01:57:59.320Z,3.00
2022-11-10T02:00:26.075Z,3.60
2022-11-10T02:03:03.763Z,4.53
2022-11-10T02:05:31.456Z,3.70
2022-11-10T02:07:59.442Z,5.88
2022-11-10T02:10:26.082Z,3.20
2022-11-10T02:12:52.728Z,4.28
2022-11-10T02:15:19.492Z,3.20
2022-11-10T02:17:47.747Z,6.63
2022-11-10T02:20:20.730Z,4.00
2022-11-10T02:22:47.366Z,3.63
2022-11-10T02:25:18.001Z,6.20
2022-11-10T02:27:44.645Z,3.47
2022-11-10T02:30:11.907Z,3.70
2022-11-10T02:32:38.544Z,3.40
2022-11-10T02:35:05.711Z,3.20
2022-11-10T02:37:33.018Z,3.88
2022-11-10T02:39:59.822Z,3.15
2022-11-10T02:42:27.024Z,3.58
2022-11-10T02:44:53.700Z,3.83
2022-11-10T02:47:20.347Z,3.10
2022-11-10T02:49:47.027Z,8.93
2022-11-10T02:52:13.906Z,3.90
2022-11-10T02:54:40.549Z,3.80
2022-11-10T02:57:07.137Z,3.50
2022-11-10T02:59:33.749Z,3.13
2022-11-10T03:02:00.343Z,4.10
2022-11-10T03:04:27.208Z,6.57
2022-11-10T03:06:53.857Z,3.65
2022-11-10T03:09:20.791Z,3.35
2022-11-10T03:11:47.461Z,4.07
2022-11-10T03:14:14.083Z,7.80
2022-11-10T03:16:40.711Z,4.97
2022-11-10T03:19:07.314Z,5.60
2022-11-10T03:21:33.943Z,5.95
2022-11-10T03:24:00.561Z,5.13
2022-11-10T03:26:27.591Z,5.32
2022-11-10T03:28:54.249Z,5.53
2022-11-10T03:31:27.015Z,3.83
2022-11-10T03:33:53.681Z,4.30
2022-11-10T03:36:20.372Z,4.03
2022-11-10T03:38:46.966Z,3.40
2022-11-10T03:41:21.090Z,3.63
2022-11-10T03:43:48.959Z,3.80
2022-11-10T03:46:16.237Z,5.95
2022-11-10T03:48:43.943Z,5.15
2022-11-10T03:51:12.942Z,5.80
2022-11-10T03:53:39.644Z,5.82
2022-11-10T03:56:06.887Z,4.97
2022-11-10T03:58:33.571Z,4.78
2022-11-10T04:01:00.185Z,5.38
2022-11-10T04:03:26.912Z,4.45
2022-11-10T04:06:31.930Z,4.18
2022-11-10T04:09:01.447Z,6.28
2022-11-10T04:11:48.371Z,3.80
2022-11-10T04:14:34.205Z,3.97
2022-11-10T04:17:01.858Z,31.80
2022-11-10T04:19:29.251Z,3.70
2022-11-10T04:21:56.125Z,4.82
2022-11-10T04:24:22.862Z,3.58
2022-11-10T04:26:49.858Z,3.20
2022-11-10T04:29:18.430Z,3.50
2022-11-10T04:31:45.413Z,3.97
2022-11-10T04:34:14.401Z,3.92
2022-11-10T04:36:43.514Z,5.35
2022-11-10T04:39:11.175Z,9.48
2022-11-10T04:41:38.317Z,4.28
2022-11-10T04:44:05.472Z,4.32
2022-11-10T04:46:34.848Z,4.25
2022-11-10T04:49:02.024Z,4.10
2022-11-10T04:51:31.696Z,6.07
2022-11-10T04:53:58.950Z,4.45
2022-11-10T04:56:26.979Z,4.82
2022-11-10T04:58:54.705Z,5.07
2022-11-10T05:01:27.233Z,11.18
2022-11-10T05:03:55.170Z,4.18
2022-11-10T05:06:22.419Z,4.25
2022-11-10T05:08:49.746Z,5.55
2022-11-10T05:11:16.601Z,4.00
2022-11-10T05:13:44.566Z,6.00
2022-11-10T05:16:11.751Z,4.38
2022-11-10T05:18:38.590Z,5.55
2022-11-10T05:21:05.353Z,4.15
2022-11-10T05:23:37.951Z,4.22
2022-11-10T05:26:06.586Z,4.05
2022-11-10T05:28:33.764Z,4.45
2022-11-10T05:31:00.489Z,4.40
2022-11-10T05:33:27.286Z,4.82
2022-11-10T05:35:53.927Z,4.07
2022-11-10T05:38:20.617Z,3.72
2022-11-10T05:40:47.308Z,7.07
2022-11-10T05:43:14.264Z,4.43
2022-11-10T05:45:40.889Z,4.25
2022-11-10T05:48:07.622Z,4.20
2022-11-10T05:50:34.296Z,3.95
2022-11-10T05:53:00.952Z,4.07
2022-11-10T05:55:29.002Z,4.03
2022-11-10T05:57:56.966Z,4.03
2022-11-10T06:00:26.450Z,4.07
2022-11-10T06:03:17.367Z,4.05
2022-11-10T06:05:44.690Z,4.43
2022-11-10T06:08:11.667Z,3.83
2022-11-10T06:10:39.223Z,3.90
2022-11-10T06:13:05.927Z,4.20
2022-11-10T06:15:33.108Z,4.57
2022-11-10T06:17:59.852Z,3.50
2022-11-10T06:20:27.142Z,3.60
2022-11-10T06:23:10.404Z,3.83
2022-11-10T06:25:38.996Z,4.47
2022-11-10T06:28:06.815Z,3.65
2022-11-10T06:30:35.396Z,3.55
2022-11-10T06:33:02.246Z,3.88
2022-11-10T06:35:30.184Z,3.75
2022-11-10T06:38:01.003Z,3.45
2022-11-10T06:40:28.366Z,3.13
2022-11-10T06:42:54.987Z,3.28
2022-11-10T06:45:22.125Z,4.50
2022-11-10T06:47:48.883Z,3.67
2022-11-10T06:50:15.595Z,3.92
2022-11-10T06:52:42.173Z,5.05
2022-11-10T06:55:09.308Z,3.67
2022-11-10T06:57:39.615Z,6.20
2022-11-10T07:00:07.676Z,5.20
2022-11-10T07:02:34.331Z,3.30
2022-11-10T07:05:00.983Z,3.70
2022-11-10T07:07:27.630Z,3.15
2022-11-10T07:09:54.234Z,3.33
2022-11-10T07:12:20.983Z,3.95
2022-11-10T07:14:47.577Z,5.18
2022-11-10T07:17:14.269Z,3.47
2022-11-10T07:19:40.929Z,3.83
2022-11-10T07:22:11.147Z,5.10
2022-11-10T07:24:38.090Z,3.72
2022-11-10T07:27:04.714Z,3.92
2022-11-10T07:29:31.330Z,7.53
2022-11-10T07:31:58.066Z,3.53
2022-11-10T07:34:24.698Z,3.50
2022-11-10T07:36:51.296Z,3.38
2022-11-10T07:39:17.910Z,3.58
2022-11-10T07:41:46.668Z,3.30
2022-11-10T07:44:16.719Z,3.85
2022-11-10T07:46:43.314Z,4.70
2022-11-10T07:49:10.154Z,3.72
2022-11-10T07:51:36.832Z,3.70
2022-11-10T07:54:04.127Z,3.67
2022-11-10T07:56:30.794Z,3.75
2022-11-10T07:58:57.402Z,3.65
2022-11-10T08:01:24.100Z,3.50
2022-11-10T08:03:50.816Z,3.75
2022-11-10T08:06:17.879Z,3.60
2022-11-10T08:08:47.063Z,6.57
2022-11-10T08:11:13.826Z,4.57
2022-11-10T08:13:41.420Z,4.47
2022-11-10T08:16:08.030Z,6.07
2022-11-10T08:18:35.663Z,5.28
2022-11-10T08:21:03.602Z,5.18
2022-11-10T08:23:30.394Z,5.45
2022-11-10T08:26:01.490Z,5.38
2022-11-10T08:28:28.225Z,5.32
2022-11-10T08:30:54.955Z,6.03
2022-11-10T08:33:22.245Z,7.30
2022-11-10T08:35:51.773Z,5.68
2022-11-10T08:38:22.912Z,5.78
2022-11-10T08:40:49.898Z,5.18
2022-11-10T08:43:18.037Z,5.30
2022-11-10T08:45:45.591Z,6.97
2022-11-10T08:48:15.410Z,5.10
2022-11-10T08:50:42.695Z,6.78
2022-11-10T08:53:14.731Z,5.32
2022-11-10T08:55:42.803Z,5.05
2022-11-10T08:58:13.675Z,4.40
2022-11-10T09:00:40.405Z,4.63
2022-11-10T09:03:13.686Z,6.72
2022-11-10T09:05:40.902Z,4.45
2022-11-10T09:08:08.446Z,5.82
2022-11-10T09:10:37.310Z,5.82
2022-11-10T09:13:04.928Z,6.65
2022-11-10T09:15:32.779Z,4.55
2022-11-10T09:18:04.186Z,5.47
2022-11-10T09:20:33.324Z,4.72
2022-11-10T09:23:17.004Z,4.80
2022-11-10T09:25:49.950Z,6.72
2022-11-10T09:28:17.424Z,6.95
2022-11-10T09:30:46.870Z,6.13
2022-11-10T09:33:13.917Z,6.18
2022-11-10T09:35:40.733Z,7.70
2022-11-10T09:38:07.438Z,7.20
2022-11-10T09:40:52.130Z,8.50
2022-11-10T09:43:46.114Z,7.57
2022-11-10T09:46:31.136Z,7.78
2022-11-10T09:49:12.752Z,18.50
2022-11-10T09:51:47.953Z,13.55
2022-11-10T09:54:56.467Z,27.92
2022-11-10T09:57:26.626Z,12.73
2022-11-10T09:59:54.049Z,10.77
2022-11-10T10:02:32.885Z,12.60
2022-11-10T10:05:21.245Z,10.32
2022-11-10T10:08:15.577Z,9.88
2022-11-10T10:10:47.486Z,8.63
2022-11-10T10:13:51.800Z,7.05
2022-11-10T10:16:55.642Z,6.35
2022-11-10T10:19:28.980Z,7.40
2022-11-10T10:22:30.850Z,12.27
2022-11-10T10:25:02.255Z,8.77
2022-11-10T10:27:29.971Z,8.65
2022-11-10T10:29:56.690Z,7.57
2022-11-10T10:32:23.542Z,8.48
2022-11-10T10:34:50.277Z,7.78
2022-11-10T10:37:49.640Z,7.72
2022-11-10T10:40:20.566Z,6.30
2022-11-10T10:42:47.493Z,7.05
2022-11-10T10:45:17.181Z,8.90
2022-11-10T10:47:45.153Z,6.75
2022-11-10T10:50:32.374Z,6.30
2022-11-10T10:53:22.073Z,8.55
2022-11-10T10:55:59.807Z,6.57
2022-11-10T10:58:31.850Z,8.60
2022-11-10T11:01:16.705Z,7.30
2022-11-10T11:03:50.077Z,6.63
2022-11-10T11:06:19.274Z,6.28
2022-11-10T11:09:06.821Z,7.68
2022-11-10T11:11:36.460Z,8.65
2022-11-10T11:14:26.135Z,7.28
2022-11-10T11:17:21.811Z,8.07
2022-11-10T11:19:59.414Z,7.82
2022-11-10T11:22:46.336Z,9.02
2022-11-10T11:25:33.571Z,9.23
2022-11-10T11:28:18.460Z,8.40
2022-11-10T11:31:07.081Z,9.55
2022-11-10T11:33:59.909Z,12.50
2022-11-10T11:36:44.604Z,13.70
2022-11-10T11:39:49.956Z,11.65
2022-11-10T11:42:45.810Z,8.70
2022-11-10T11:45:30.341Z,12.65
2022-11-10T11:48:09.172Z,15.65
2022-11-10T11:51:01.476Z,15.50
2022-11-10T11:54:08.253Z,15.23
2022-11-10T11:56:41.380Z,14.00
2022-11-10T11:59:29.799Z,13.45
2022-11-10T12:02:34.230Z,11.38
2022-11-10T12:05:22.526Z,12.77
2022-11-10T12:08:08.718Z,11.02
2022-11-10T12:11:13.115Z,11.05
2022-11-10T12:13:56.728Z,9.15
2022-11-10T12:16:30.512Z,11.73
2022-11-10T12:19:29.243Z,9.73
2022-11-10T12:22:12.975Z,13.05
2022-11-10T12:25:05.755Z,16.52
2022-11-10T12:27:36.591Z,11.20
2022-11-10T12:30:10.957Z,11.23
2022-11-10T12:32:44.143Z,8.52
2022-11-10T12:35:29.115Z,16.70
2022-11-10T12:38:26.751Z,10.88
2022-11-10T12:41:01.982Z,23.90
2022-11-10T12:43:44.063Z,15.50
2022-11-10T12:46:12.962Z,15.85
2022-11-10T12:48:46.843Z,14.75
2022-11-10T12:51:21.830Z,9.23
2022-11-10T12:53:49.206Z,13.15
2022-11-10T12:56:28.583Z,11.43
2022-11-10T12:59:22.574Z,11.52
2022-11-10T13:01:52.595Z,20.05
2022-11-10T13:04:20.767Z,14.30
2022-11-10T13:06:54.076Z,15.07
2022-11-10T13:09:26.700Z,12.15
2022-11-10T13:12:11.396Z,13.70
2022-11-10T13:14:38.657Z,20.85
2022-11-10T13:17:05.688Z,18.00
2022-11-10T13:19:39.065Z,19.50
2022-11-10T13:22:10.389Z,16.42
2022-11-10T13:24:42.640Z,19.83
2022-11-10T13:27:33.408Z,11.43
2022-11-10T13:30:00.585Z,11.13
2022-11-10T13:32:30.364Z,13.43
2022-11-10T13:35:29.000Z,14.00
2022-11-10T13:37:57.179Z,16.67
2022-11-10T13:40:23.815Z,20.10
2022-11-10T13:42:59.322Z,10.55
2022-11-10T13:45:47.092Z,14.27
2022-11-10T13:48:13.744Z,11.25
2022-11-10T13:51:13.221Z,19.90
2022-11-10T13:54:02.328Z,13.07
2022-11-10T13:56:32.109Z,16.00
2022-11-10T13:58:59.278Z,18.98
2022-11-10T14:01:30.348Z,16.52
2022-11-10T14:04:00.917Z,15.25
2022-11-10T14:06:40.792Z,16.35
2022-11-10T14:09:41.267Z,15.98
2022-11-10T14:12:19.590Z,11.00
2022-11-10T14:14:46.200Z,13.90
2022-11-10T14:17:20.330Z,13.90
2022-11-10T14:19:47.172Z,9.27
2022-11-10T14:22:42.899Z,12.48
2022-11-10T14:25:28.077Z,12.93
2022-11-10T14:30:29.021Z,13.25
2022-11-10T14:33:06.362Z,13.13
2022-11-10T14:35:44.701Z,12.32
2022-11-10T14:38:31.249Z,13.75
2022-11-10T14:41:00.055Z,12.30
2022-11-10T14:43:32.547Z,17.67
2022-11-10T14:45:59.999Z,13.93
2022-11-10T14:48:29.207Z,13.80
2022-11-10T14:51:03.699Z,13.10
2022-11-10T14:53:35.369Z,10.55
2022-11-10T14:56:05.236Z,12.85
2022-11-10T14:58:37.427Z,12.30
2022-11-10T15:01:05.689Z,13.68
2022-11-10T15:03:38.884Z,10.73
2022-11-10T15:06:09.396Z,9.60
2022-11-10T15:08:36.740Z,9.32
2022-11-10T15:11:03.787Z,8.77
2022-11-10T15:13:33.544Z,7.00
2022-11-10T15:16:25.685Z,11.00
2022-11-10T15:18:54.910Z,7.65
2022-11-10T15:21:34.153Z,10.20
2022-11-10T15:24:05.852Z,8.10
2022-11-10T15:26:39.660Z,7.07
2022-11-10T15:29:16.791Z,7.28
2022-11-10T15:31:44.159Z,7.47
2022-11-10T15:34:29.635Z,6.80
2022-11-10T15:37:30.458Z,4.00
2022-11-10T15:40:29.655Z,9.30
2022-11-10T15:43:15.253Z,6.28
2022-11-10T15:45:50.531Z,5.88
2022-11-10T15:48:18.077Z,3.97
2022-11-10T15:50:49.001Z,4.78
2022-11-10T15:53:19.683Z,5.30
2022-11-10T15:55:46.503Z,4.53
2022-11-10T15:58:15.829Z,4.35
2022-11-10T16:00:42.606Z,4.75
2022-11-10T16:03:13.745Z,2.97
2022-11-10T16:05:41.367Z,3.55
2022-11-10T16:08:17.469Z,2.22
2022-11-10T16:10:56.400Z,3.85
2022-11-10T16:13:29.383Z,2.47
2022-11-10T16:15:57.705Z,3.72
2022-11-10T16:18:27.221Z,3.22
2022-11-10T16:20:55.281Z,3.50
2022-11-10T16:23:22.829Z,3.83
2022-11-10T16:25:51.480Z,4.47
2022-11-10T16:28:23.815Z,5.75
2022-11-10T16:30:52.318Z,3.60
2022-11-10T16:33:21.619Z,2.33
2022-11-10T16:35:53.067Z,1.30
2022-11-10T16:38:27.923Z,1.35
2022-11-10T16:43:23.191Z,1.05
2022-11-10T16:45:52.865Z,0.90
2022-11-10T16:48:23.309Z,5.97
2022-11-10T16:50:52.529Z,0.82
2022-11-10T16:53:23.628Z,0.90
2022-11-10T16:55:50.974Z,5.60
2022-11-10T16:58:17.637Z,1.10
2022-11-10T17:00:45.543Z,1.98
2022-11-10T17:03:15.190Z,0.88
2022-11-10T17:05:42.479Z,3.70
2022-11-10T17:08:21.740Z,3.90
2022-11-10T17:10:49.853Z,2.15
2022-11-10T17:13:17.613Z,4.60
2022-11-10T17:15:46.640Z,5.30
2022-11-10T17:18:17.152Z,2.45
2022-11-10T17:20:48.251Z,1.70
2022-11-10T17:23:17.351Z,1.48
2022-11-10T17:25:44.601Z,2.22
2022-11-10T17:28:16.400Z,1.35
2022-11-10T17:30:43.054Z,2.05
2022-11-10T17:33:10.231Z,1.40
2022-11-10T17:35:46.069Z,3.83
2022-11-10T17:38:17.327Z,2.13
2022-11-10T17:40:44.171Z,2.58
2022-11-10T17:43:12.761Z,3.60
2022-11-10T17:45:39.710Z,1.10
2022-11-10T17:48:07.174Z,0.90
2022-11-10T17:50:36.113Z,2.20
2022-11-10T17:53:09.377Z,1.05
2022-11-10T17:55:36.985Z,4.55
2022-11-10T17:58:03.744Z,1.92
2022-11-10T18:00:30.369Z,1.40
2022-11-10T18:02:57.131Z,12.05
2022-11-10T18:05:23.842Z,4.10
2022-11-10T18:07:51.500Z,1.95
2022-11-10T18:10:18.685Z,2.38
2022-11-10T18:12:52.624Z,3.15
2022-11-10T18:15:19.375Z,4.65
2022-11-10T18:17:45.979Z,10.88
2022-11-10T18:20:14.048Z,4.22
2022-11-10T18:22:40.808Z,3.65
2022-11-10T18:25:09.114Z,7.05
2022-11-10T18:27:36.778Z,4.97
2022-11-10T18:30:04.881Z,2.35
2022-11-10T18:32:31.908Z,5.47
2022-11-10T18:34:58.578Z,1.27
2022-11-10T18:37:25.226Z,1.60
2022-11-10T18:39:51.838Z,2.25
2022-11-10T18:42:18.500Z,1.88
2022-11-10T18:44:45.143Z,1.55
2022-11-10T18:47:13.061Z,2.00
2022-11-10T18:49:39.710Z,2.15
2022-11-10T18:52:06.405Z,4.18
2022-11-10T18:54:33.423Z,5.65
2022-11-10T18:57:00.056Z,2.78
2022-11-10T18:59:26.681Z,5.72
2022-11-10T19:01:53.956Z,2.17
2022-11-10T19:04:20.682Z,1.30
2022-11-10T19:06:47.307Z,2.65
2022-11-10T19:09:14.203Z,2.75
2022-11-10T19:11:40.852Z,2.58
2022-11-10T19:14:07.443Z,4.80
2022-11-10T19:16:34.076Z,1.85
2022-11-10T19:19:00.966Z,1.40
2022-11-10T19:21:27.734Z,3.75
2022-11-10T19:23:58.194Z,2.30
2022-11-10T19:26:26.518Z,6.25
2022-11-10T19:28:55.641Z,2.40
2022-11-10T19:31:24.186Z,1.73
2022-11-10T19:33:53.930Z,2.75
2022-11-10T19:36:23.575Z,2.83
2022-11-10T19:38:50.768Z,3.60
2022-11-10T19:41:29.233Z,8.60
2022-11-10T19:43:56.194Z,4.07
2022-11-10T19:46:27.980Z,7.68
2022-11-10T19:48:55.422Z,12.55
2022-11-10T19:51:22.809Z,11.80
2022-11-10T19:53:58.144Z,12.38
2022-11-10T19:56:28.990Z,15.40
2022-11-10T19:58:59.248Z,7.45
2022-11-10T20:01:26.576Z,4.85
2022-11-10T20:03:53.358Z,8.02
2022-11-10T20:06:22.658Z,7.03
2022-11-10T20:08:49.988Z,3.90
2022-11-10T20:11:23.418Z,2.70
2022-11-10T20:13:54.679Z,2.25
2022-11-10T20:16:22.368Z,3.33
2022-11-10T20:18:49.029Z,1.88
2022-11-10T20:21:17.866Z,1.70
2022-11-10T20:23:44.638Z,3.50
2022-11-10T20:26:15.331Z,2.10
2022-11-10T20:28:43.098Z,3.28
2022-11-10T20:31:20.460Z,3.22
2022-11-10T20:33:51.518Z,4.53
2022-11-10T20:36:21.972Z,2.58
2022-11-10T20:38:49.915Z,2.85
2022-11-10T20:41:19.605Z,3.53
2022-11-10T20:43:46.341Z,4.78
2022-11-10T20:46:33.379Z,5.30
2022-11-10T20:49:03.137Z,2.70
2022-11-10T20:51:29.853Z,4.72
2022-11-10T20:53:57.078Z,3.97
2022-11-10T20:56:29.255Z,3.00
2022-11-10T20:58:56.610Z,1.92
2022-11-10T21:01:23.765Z,2.75
2022-11-10T21:03:50.740Z,2.45
2022-11-10T21:06:17.600Z,1.58
2022-11-10T21:08:44.232Z,6.22
2022-11-10T21:11:11.281Z,6.82
2022-11-10T21:13:39.074Z,1.65
2022-11-10T21:16:06.785Z,1.80
2022-11-10T21:18:36.069Z,2.10
2022-11-10T21:21:04.790Z,1.90
2022-11-10T21:23:31.567Z,1.67
2022-11-10T21:26:00.220Z,1.90
2022-11-10T21:28:27.522Z,2.78
2022-11-10T21:31:05.280Z,1.60
2022-11-10T21:33:31.939Z,1.92
2022-11-10T21:36:04.298Z,2.10
2022-11-10T21:38:30.891Z,2.78
2022-11-10T21:40:57.967Z,2.00
2022-11-10T21:43:24.935Z,1.77
2022-11-10T21:45:59.047Z,2.08
2022-11-10T21:48:25.615Z,1.53
2022-11-10T21:50:52.206Z,4.53
2022-11-10T21:53:18.887Z,2.20
2022-11-10T21:55:45.467Z,2.10
2022-11-10T21:58:12.047Z,2.22
2022-11-10T22:00:38.651Z,2.70
2022-11-10T22:03:05.855Z,4.80
2022-11-10T22:05:33.623Z,4.75
2022-11-10T22:08:00.223Z,2.30
2022-11-10T22:10:45.363Z,2.10
2022-11-10T22:16:19.219Z,5.15
2022-11-10T22:18:46.704Z,2.03
2022-11-10T22:21:13.424Z,2.83
2022-11-10T22:23:58.323Z,2.17
2022-11-10T22:26:24.966Z,3.13
2022-11-10T22:28:51.557Z,2.20
2022-11-10T22:31:18.189Z,3.08
2022-11-10T22:33:44.906Z,3.88
2022-11-10T22:36:14.725Z,1.77
2022-11-10T22:38:42.357Z,1.55
2022-11-10T22:41:32.885Z,1.65
2022-11-10T22:44:03.862Z,1.70
2022-11-10T22:46:38.648Z,5.30
2022-11-10T22:51:33.765Z,4.28
2022-11-10T22:54:00.904Z,1.55
2022-11-10T22:56:27.795Z,2.78
2022-11-10T22:58:59.617Z,1.45
2022-11-10T23:01:27.265Z,1.77
2022-11-10T23:03:54.079Z,1.52
2022-11-10T23:06:20.908Z,1.60
2022-11-10T23:08:47.544Z,2.55
2022-11-10T23:11:17.525Z,2.05
2022-11-10T23:13:44.227Z,1.25
2022-11-10T23:16:13.541Z,3.10
2022-11-10T23:18:44.681Z,1.20
2022-11-10T23:21:14.430Z,1.48
2022-11-10T23:23:41.853Z,1.23
2022-11-10T23:26:11.197Z,3.50
2022-11-10T23:28:38.059Z,1.35
2022-11-10T23:31:06.049Z,1.30
2022-11-10T23:33:33.663Z,2.90
2022-11-10T23:36:00.631Z,1.45
2022-11-10T23:38:30.833Z,1.70
2022-11-10T23:40:58.863Z,4.57
2022-11-10T23:43:26.615Z,1.73
2022-11-10T23:46:06.543Z,3.20
2022-11-10T23:48:35.220Z,2.83
2022-11-10T23:51:02.039Z,1.20
2022-11-10T23:53:28.817Z,1.75
2022-11-10T23:56:04.343Z,1.10
2022-11-10T23:58:31.703Z,1.13
